Time;durP1;ratioP1;P1;durP2;ratioP2;P2;SDS_P1;SDS_P2;PMS_P1;PMS_P2;Temp;Humidity;BMP_temperature;BMP_pressure;BME280_temperature;BME280_humidity;BME280_pressure;Samples;Min_cycle;Max_cycle;Signal;HPM_P1;HPM_P2
2021/12/31 00:03:07;;;;;;;2.22;1.87;;;;;;;12.85;56.20;101597.94;144992;632;6004;-86
2021/12/31 00:06:47;;;;;;;;;;;;;;;;;;;;;
2021/12/31 00:09:54;;;;;;;3.15;1.90;;;;;;;12.38;58.01;101576.34;144992;625;6002;-91
2021/12/31 00:13:12;;;;;;;2.97;1.98;;;;;;;12.49;57.68;101598.44;144992;583;6002;-92
2021/12/31 00:16:28;;;;;;;3.45;2.10;;;;;;;12.37;58.39;101598.00;144992;640;6005;-88
2021/12/31 00:19:30;;;;;;;3.12;2.05;;;;;;;12.40;58.36;101579.88;144992;611;6004;-91
2021/12/31 00:29:39;;;;;;;3.20;1.60;;;;;;;12.08;59.17;101610.81;144992;583;6002;-92
2021/12/31 04:28:59;;;;;;;5.72;3.28;;;;;;;12.88;57.92;101789.19;144993;572;6002;-84
2021/12/31 04:32:02;;;;;;;8.18;3.40;;;;;;;12.98;57.32;101795.63;144993;578;6000;-91
2021/12/31 04:42:04;;;;;;;;;;;;;;;;;;;;;
2021/12/31 04:48:39;;;;;;;;;;;;;;;;;;;;;
2021/12/31 08:53:39;;;;;;;2.28;1.83;;;;;;;15.66;46.62;102049.28;144993;561;5002;-88
2021/12/31 08:56:32;;;;;;;2.45;1.92;;;;;;;15.97;46.09;102042.34;144994;569;5002;-93
2021/12/31 08:59:31;;;;;;;2.30;2.10;;;;;;;15.85;45.86;102036.78;144994;575;5004;-92
2021/12/31 09:07:52;;;;;;;3.08;2.35;;;;;;;15.62;47.70;102025.59;144994;598;5002;-83
2021/12/31 09:10:22;;;;;;;4.22;2.28;;;;;;;14.90;48.08;102045.12;144994;579;5002;-91
2021/12/31 09:13:11;;;;;;;2.40;1.92;;;;;;;15.26;48.30;102023.63;144994;567;5004;-88
2021/12/31 09:15:57;;;;;;;;;;;;;;;;;;;;;
2021/12/31 09:22:49;;;;;;;;;;;;;;;;;;;;;
2021/12/31 09:29:53;;;;;;;;;;;;;;;;;;;;;
2021/12/31 09:33:01;;;;;;;5.57;2.55;;;;;;;15.17;48.86;102029.44;144994;705;5004;-87
2021/12/31 09:36:08;;;;;;;3.30;2.33;;;;;;;15.24;48.23;102015.75;144994;579;5004;-87
2021/12/31 09:43:12;;;;;;;;;;;;;;;;;;;;;
2021/12/31 09:46:55;;;;;;;3.00;2.00;;;;;;;15.40;47.84;102012.75;144994;597;5002;-87
2021/12/31 09:50:13;;;;;;;3.15;2.20;;;;;;;16.14;47.17;102022.75;144994;592;5004;-82
2021/12/31 09:53:33;;;;;;;2.83;2.22;;;;;;;15.80;47.38;102022.69;144994;587;5004;-85
2021/12/31 09:56:03;;;;;;;2.95;2.00;;;;;;;15.81;47.65;102016.56;144994;592;5002;-92
2021/12/31 09:58:35;;;;;;;2.60;2.10;;;;;;;16.09;47.99;102002.53;144994;603;5002;-92
2021/12/31 10:01:28;;;;;;;4.40;2.55;;;;;;;16.13;47.42;102007.03;144994;565;5002;-83
2021/12/31 10:04:39;;;;;;;;;;;;;;;;;;;;;
2021/12/31 10:11:22;;;;;;;4.53;2.45;;;;;;;16.44;46.91;101982.50;144994;604;5002;-84
2021/12/31 10:17:09;;;;;;;3.97;2.33;;;;;;;16.49;45.02;101973.00;144994;667;5004;-90
2021/12/31 10:20:00;;;;;;;3.03;1.90;;;;;;;16.76;44.56;101963.19;144993;578;5004;-86
2021/12/31 10:22:34;;;;;;;2.65;2.05;;;;;;;16.37;44.76;101964.88;144994;607;5004;-88
2021/12/31 10:25:36;;;;;;;;;;;;;;;;;;;;;
2021/12/31 10:28:29;;;;;;;;;;;;;;;;;;;;;
2021/12/31 10:31:19;;;;;;;5.82;2.17;;;;;;;16.28;44.76;101939.28;144994;569;4572;-83
2021/12/31 10:33:48;;;;;;;2.80;1.77;;;;;;;16.75;43.79;101949.19;144994;583;4576;-86
2021/12/31 10:36:38;;;;;;;1.87;1.60;;;;;;;16.81;45.21;101945.81;144992;635;6004;-87
2021/12/31 10:39:27;;;;;;;2.08;1.80;;;;;;;17.22;42.69;101944.16;144992;580;6004;-87
2021/12/31 10:42:27;;;;;;;4.07;1.70;;;;;;;17.51;43.36;101945.66;144992;574;6004;-89
2021/12/31 10:45:02;;;;;;;2.58;1.55;;;;;;;17.46;39.80;101942.03;144992;593;6002;-89
2021/12/31 10:47:47;;;;;;;1.60;1.50;;;;;;;17.35;40.42;101947.06;144992;565;6002;-87
2021/12/31 10:50:37;;;;;;;2.20;1.52;;;;;;;17.50;42.55;101941.22;144992;580;6002;-88
2021/12/31 10:53:10;;;;;;;1.33;1.23;;;;;;;17.32;40.33;101942.66;144992;582;6002;-86
2021/12/31 10:55:48;;;;;;;1.55;1.45;;;;;;;17.99;42.52;101943.97;144992;580;6003;-88
2021/12/31 10:58:39;;;;;;;1.70;1.50;;;;;;;18.09;41.15;101917.91;144992;570;6002;-89
2021/12/31 11:01:24;;;;;;;2.67;2.08;;;;;;;17.98;39.59;101931.72;144992;569;6002;-89
2021/12/31 11:04:22;;;;;;;3.00;2.08;;;;;;;18.03;40.45;101919.56;144992;593;6002;-86
2021/12/31 11:07:04;;;;;;;2.58;1.65;;;;;;;18.18;40.60;101926.81;144992;586;6002;-83
2021/12/31 11:09:43;;;;;;;1.80;1.58;;;;;;;18.20;41.72;101923.38;144992;580;6002;-86
2021/12/31 11:12:16;;;;;;;2.12;1.20;;;;;;;18.21;41.19;101921.59;144992;566;6002;-89
2021/12/31 11:14:51;;;;;;;1.80;1.30;;;;;;;18.39;41.15;101924.56;144992;612;6002;-87
2021/12/31 11:17:27;;;;;;;2.72;1.50;;;;;;;18.25;40.62;101911.19;144992;571;6002;-84
2021/12/31 11:20:07;;;;;;;2.87;1.90;;;;;;;18.42;40.12;101919.34;144992;620;6002;-86
2021/12/31 11:22:36;;;;;;;3.05;2.08;;;;;;;18.79;40.72;101909.41;144992;589;6002;-89
2021/12/31 11:25:24;;;;;;;2.92;1.60;;;;;;;18.90;39.02;101933.28;144992;592;6002;-91
2021/12/31 11:27:55;;;;;;;2.62;2.12;;;;;;;18.97;40.64;101927.22;144992;623;6002;-85
2021/12/31 11:31:16;;;;;;;2.40;1.75;;;;;;;18.85;40.82;101922.69;144992;620;6002;-88
2021/12/31 12:43:54;;;;;;;5.20;2.10;;;;;;;18.19;43.33;101911.06;144991;635;6002;-91
2021/12/31 12:49:18;;;;;;;3.62;2.40;;;;;;;18.44;42.20;101925.50;144992;591;6002;-82
2021/12/31 12:57:04;;;;;;;2.37;2.15;;;;;;;18.95;41.84;101914.94;144992;570;6002;-89
2021/12/31 13:02:15;;;;;;;3.78;2.15;;;;;;;18.26;41.62;101914.69;144992;577;6002;-87
2021/12/31 13:05:28;;;;;;;3.62;1.75;;;;;;;18.76;42.09;101908.47;144992;564;6002;-86
2021/12/31 13:18:23;;;;;;;2.78;2.53;;;;;;;18.47;41.00;101911.56;144992;595;6002;-88
2021/12/31 13:26:02;;;;;;;1.73;1.17;;;;;;;17.87;40.45;101908.72;144992;590;6004;-87
2021/12/31 13:28:51;;;;;;;2.28;1.20;;;;;;;17.48;37.66;101912.34;144992;609;6002;-90
2021/12/31 14:10:08;;;;;;;2.30;1.83;;;;;;;17.06;39.78;101962.16;144992;569;6002;-88
2021/12/31 14:13:14;;;;;;;3.22;1.90;;;;;;;16.75;39.09;101969.28;144992;583;6002;-88
2021/12/31 14:15:45;;;;;;;2.37;1.83;;;;;;;16.90;39.62;101966.19;144992;598;6004;-89
2021/12/31 14:18:17;;;;;;;3.67;1.92;;;;;;;16.80;39.10;101976.41;144992;733;6004;-91
2021/12/31 14:21:02;;;;;;;2.30;1.98;;;;;;;16.51;39.04;101975.66;144992;729;6004;-90
2021/12/31 14:23:33;;;;;;;3.47;2.20;;;;;;;16.68;41.12;101981.34;144992;565;6004;-89
2021/12/31 14:26:05;;;;;;;3.35;2.12;;;;;;;16.65;40.68;101981.28;144992;563;6004;-88
2021/12/31 14:28:46;;;;;;;3.47;2.60;;;;;;;16.46;39.29;101982.53;144992;630;6004;-88
2021/12/31 14:31:42;;;;;;;2.10;1.60;;;;;;;16.19;39.11;101988.81;144992;666;6006;-90
2021/12/31 14:34:20;;;;;;;1.90;1.70;;;;;;;16.32;40.62;101998.81;144992;577;6002;-90
2021/12/31 14:37:01;;;;;;;2.50;1.80;;;;;;;16.55;40.49;101993.25;144992;589;6002;-87
2021/12/31 14:39:51;;;;;;;3.42;2.50;;;;;;;16.71;40.16;101999.78;144992;679;6002;-88
2021/12/31 14:42:51;;;;;;;2.60;2.10;;;;;;;16.38;39.01;101995.44;144992;616;6002;-87
2021/12/31 14:45:34;;;;;;;3.60;2.60;;;;;;;16.52;40.69;101995.81;144992;584;6002;-88
2021/12/31 14:48:12;;;;;;;4.10;2.65;;;;;;;16.58;40.11;101997.72;144992;590;6002;-85
2021/12/31 14:51:16;;;;;;;3.37;2.45;;;;;;;16.28;40.24;102002.19;144992;585;6002;-88
2021/12/31 14:53:51;;;;;;;3.60;2.85;;;;;;;16.11;40.64;102012.22;144992;579;6002;-85
2021/12/31 14:56:28;;;;;;;3.55;3.00;;;;;;;15.85;40.21;102011.47;144992;572;6002;-86
2021/12/31 14:59:30;;;;;;;;;;;;;;;;;;;;;
2021/12/31 15:02:14;;;;;;;5.60;4.28;;;;;;;15.76;41.33;102017.34;144992;642;6002;-89
2021/12/31 15:05:05;;;;;;;6.20;4.43;;;;;;;15.89;41.12;102015.97;144992;666;6002;-88
2021/12/31 15:07:53;;;;;;;5.00;4.35;;;;;;;15.92;41.46;102005.59;144992;571;6002;-90
2021/12/31 15:10:39;;;;;;;5.85;3.83;;;;;;;16.03;41.87;102004.97;144992;570;6002;-86
2021/12/31 15:13:22;;;;;;;;;;;;;;;;;;;;;
2021/12/31 15:16:07;;;;;;;4.50;3.65;;;;;;;16.25;41.46;102009.06;144992;571;6004;-85
2021/12/31 15:18:51;;;;;;;3.47;3.17;;;;;;;16.32;41.19;102011.91;144992;619;6004;-87
2021/12/31 15:21:22;;;;;;;;;;;;;;;16.44;41.03;102018.31;144997;914;6004;-87
2021/12/31 15:24:07;;;;;;;5.60;4.12;;;;;;;16.44;41.60;102016.56;144997;571;6002;-86
2021/12/31 15:26:44;;;;;;;5.87;4.10;;;;;;;16.53;40.93;102015.03;144992;606;6002;-87
2021/12/31 15:29:26;;;;;;;6.30;4.68;;;;;;;16.57;40.87;102016.91;144992;571;6002;-84
2021/12/31 15:31:56;;;;;;;5.97;5.20;;;;;;;16.44;41.42;102015.69;144992;594;6002;-89
2021/12/31 15:34:28;;;;;;;5.72;4.78;;;;;;;16.51;41.48;102015.00;144992;719;6002;-86
2021/12/31 15:36:57;;;;;;;7.22;4.90;;;;;;;16.56;40.98;102012.50;144992;571;6002;-89
2021/12/31 15:39:24;;;;;;;8.45;5.30;;;;;;;16.54;41.58;102014.19;144992;592;6002;-88
2021/12/31 15:41:50;;;;;;;6.28;5.37;;;;;;;16.42;41.73;102022.63;144992;643;6002;-88
2021/12/31 15:44:17;;;;;;;8.02;5.20;;;;;;;16.37;41.32;102024.22;144992;587;6002;-89
2021/12/31 15:46:44;;;;;;;5.93;5.30;;;;;;;16.32;42.14;102030.25;144992;574;6002;-88
2021/12/31 15:49:31;;;;;;;5.72;5.03;;;;;;;16.31;42.10;102031.09;144992;579;6002;-90
2021/12/31 15:52:12;;;;;;;8.02;5.80;;;;;;;16.31;42.06;102033.69;144992;593;6002;-92
2021/12/31 16:08:33;;;;;;;12.68;9.25;;;;;;;16.24;42.88;102016.06;144992;590;6005;-91
2021/12/31 16:11:14;;;;;;;10.50;9.15;;;;;;;16.17;43.47;102011.47;144992;593;6004;-85
2021/12/31 16:13:45;;;;;;;13.98;10.23;;;;;;;15.80;43.97;102018.31;144992;623;6004;-82
2021/12/31 16:16:13;;;;;;;13.38;9.65;;;;;;;15.94;43.83;102021.34;144991;604;6000;-90
2021/12/31 16:18:40;;;;;;;13.02;11.15;;;;;;;15.99;43.75;102014.50;144992;575;6002;-91
2021/12/31 16:21:09;;;;;;;13.88;10.18;;;;;;;15.66;44.54;102023.09;144992;637;6002;-88
2021/12/31 16:23:37;;;;;;;15.02;10.55;;;;;;;15.62;44.61;102030.81;144992;601;6003;-89
2021/12/31 16:26:17;;;;;;;11.68;9.57;;;;;;;15.75;44.46;102031.22;144992;602;6002;-90
2021/12/31 16:28:48;;;;;;;11.40;8.80;;;;;;;15.83;44.33;102035.81;144992;625;6002;-90
2021/12/31 16:31:24;;;;;;;9.40;7.40;;;;;;;15.70;44.87;102039.78;144992;635;6002;-90
2021/12/31 16:34:05;;;;;;;11.10;7.18;;;;;;;15.69;44.85;102038.91;144992;594;6002;-89
2021/12/31 16:36:34;;;;;;;8.32;6.18;;;;;;;15.64;45.00;102043.13;144992;582;6002;-88
2021/12/31 16:39:09;;;;;;;7.87;6.18;;;;;;;15.76;44.64;102045.19;144992;574;6002;-88
2021/12/31 16:41:36;;;;;;;8.80;5.68;;;;;;;15.63;44.80;102045.69;144992;608;6002;-87
2021/12/31 16:44:05;;;;;;;8.93;6.37;;;;;;;15.46;44.58;102051.28;144992;624;6002;-90
2021/12/31 16:46:31;;;;;;;9.93;6.90;;;;;;;15.42;45.25;102058.16;144991;605;6002;-89
2021/12/31 16:48:58;;;;;;;10.77;8.50;;;;;;;15.52;44.48;102053.22;144993;715;6002;-90
2021/12/31 16:51:24;;;;;;;11.70;8.75;;;;;;;15.57;44.96;102052.53;144993;633;6002;-89
2021/12/31 16:53:51;;;;;;;13.02;9.43;;;;;;;15.60;44.55;102046.47;144993;571;6002;-88
2021/12/31 16:56:22;;;;;;;12.82;9.27;;;;;;;15.64;44.70;102050.97;144993;569;6002;-89
2021/12/31 16:58:54;;;;;;;12.35;9.30;;;;;;;15.69;44.51;102046.75;144993;587;6002;-87
2021/12/31 17:01:26;;;;;;;14.15;9.20;;;;;;;15.73;44.68;102053.87;144993;571;6002;-84
2021/12/31 17:03:59;;;;;;;11.38;9.38;;;;;;;15.78;44.23;102048.81;144993;581;6002;-88
2021/12/31 17:06:39;;;;;;;12.90;10.15;;;;;;;15.83;44.74;102049.81;144993;570;6002;-89
2021/12/31 17:09:17;;;;;;;15.55;11.00;;;;;;;15.88;44.17;102049.97;144993;636;6002;-82
2021/12/31 17:11:48;;;;;;;14.85;11.27;;;;;;;15.89;44.22;102055.25;144993;607;6002;-89
2021/12/31 17:14:28;;;;;;;15.75;11.68;;;;;;;15.94;44.19;102061.50;144993;591;6002;-91
2021/12/31 17:19:46;;;;;;;17.48;14.38;;;;;;;15.83;44.57;102060.28;144991;655;6002;-86
2021/12/31 17:22:18;;;;;;;18.45;14.63;;;;;;;15.84;44.36;102062.06;144992;604;6002;-89
2021/12/31 17:24:52;;;;;;;16.33;13.13;;;;;;;15.86;44.11;102068.25;144992;564;6002;-90
2021/12/31 17:27:26;;;;;;;19.17;14.45;;;;;;;15.87;44.19;102074.34;144992;565;6002;-91
2021/12/31 17:29:58;;;;;;;14.60;12.33;;;;;;;15.79;44.08;102074.13;144992;733;6002;-91
2021/12/31 17:32:32;;;;;;;17.33;13.82;;;;;;;15.79;44.40;102071.50;144992;591;6002;-89
2021/12/31 17:35:05;;;;;;;22.00;17.87;;;;;;;15.78;44.05;102077.59;144993;569;6002;-89
2021/12/31 17:37:44;;;;;;;28.73;22.13;;;;;;;15.58;44.67;102084.81;144993;594;5992;-81
2021/12/31 17:40:34;;;;;;;37.08;29.05;;;;;;;15.62;44.53;102078.84;144993;615;6002;-84
2021/12/31 17:43:12;;;;;;;35.65;28.00;;;;;;;15.66;44.22;102077.19;144993;564;6002;-86
2021/12/31 17:45:43;;;;;;;43.28;33.20;;;;;;;15.62;44.83;102073.59;144993;365;6002;-90
2021/12/31 17:48:20;;;;;;;35.30;27.30;;;;;;;15.65;44.29;102081.53;144992;581;6002;-83
2021/12/31 17:51:05;;;;;;;57.67;46.00;;;;;;;15.58;44.86;102082.19;144993;571;6002;-84
2021/12/31 17:53:42;;;;;;;65.62;52.17;;;;;;;15.49;45.22;102074.94;144993;599;6002;-82
2021/12/31 17:56:17;;;;;;;71.53;56.55;;;;;;;15.53;45.07;102076.81;144993;593;6002;-84
2021/12/31 17:59:21;;;;;;;63.87;53.03;;;;;;;15.45;45.43;102080.03;144993;632;6002;-91
2021/12/31 18:02:01;;;;;;;53.72;41.72;;;;;;;15.51;44.72;102083.72;144992;569;6000;-88
2021/12/31 18:04:40;;;;;;;42.67;33.95;;;;;;;15.54;45.46;102081.22;144993;715;6004;-88
2021/12/31 18:07:28;;;;;;;37.92;30.88;;;;;;;15.59;44.96;102078.75;144993;577;6002;-89
2021/12/31 18:09:56;;;;;;;35.22;28.90;;;;;;;15.55;45.94;102079.47;144993;572;6002;-91
2021/12/31 18:12:24;;;;;;;29.83;25.23;;;;;;;15.56;45.11;102076.91;144993;580;6002;-89
2021/12/31 18:14:52;;;;;;;29.15;24.90;;;;;;;15.62;44.86;102072.69;144993;602;6003;-90
2021/12/31 18:17:19;;;;;;;33.05;25.52;;;;;;;15.64;44.81;102074.53;144993;564;6002;-90
2021/12/31 18:19:47;;;;;;;31.95;26.10;;;;;;;15.64;45.04;102065.75;144993;585;6002;-91
2021/12/31 18:22:14;;;;;;;32.15;25.08;;;;;;;15.63;44.92;102072.75;144993;693;6003;-90
2021/12/31 18:24:40;;;;;;;34.35;28.75;;;;;;;15.60;45.11;102057.84;144993;737;6002;-89
2021/12/31 18:27:14;;;;;;;38.25;31.05;;;;;;;15.60;45.18;102056.94;144993;585;6002;-91
2021/12/31 18:29:46;;;;;;;46.00;37.97;;;;;;;15.59;45.83;102056.06;144994;570;5002;-92
2021/12/31 18:32:14;;;;;;;48.92;38.53;;;;;;;15.57;45.12;102056.84;144994;566;5002;-88
2021/12/31 18:34:41;;;;;;;49.97;40.67;;;;;;;15.57;45.50;102056.84;144994;637;5002;-90
2021/12/31 18:37:11;;;;;;;48.45;40.25;;;;;;;15.51;45.13;102057.56;144994;576;5002;-89
2021/12/31 18:39:37;;;;;;;44.40;37.10;;;;;;;15.48;45.65;102051.31;144994;587;5002;-89
2021/12/31 18:42:07;;;;;;;46.60;37.83;;;;;;;15.45;45.17;102049.53;144994;570;5002;-90
2021/12/31 18:44:37;;;;;;;44.42;37.65;;;;;;;15.44;45.52;102054.72;144994;563;5002;-91
2021/12/31 18:47:20;;;;;;;44.17;37.45;;;;;;;15.44;45.60;102050.34;144994;640;5002;-81
2021/12/31 18:50:03;;;;;;;50.65;38.42;;;;;;;15.42;45.84;102052.91;144994;600;5002;-89
2021/12/31 18:52:32;;;;;;;46.22;36.65;;;;;;;15.40;45.69;102054.59;144994;581;5002;-89
2021/12/31 18:54:59;;;;;;;44.45;34.47;;;;;;;15.38;45.63;102048.44;144994;574;5002;-90
2021/12/31 18:57:26;;;;;;;44.03;33.88;;;;;;;15.38;45.69;102048.44;144994;603;5002;-91
2021/12/31 18:59:54;;;;;;;39.40;31.00;;;;;;;15.37;46.05;102044.03;144994;593;5002;-91
2021/12/31 19:02:21;;;;;;;37.10;29.67;;;;;;;15.38;46.20;102061.53;144994;627;5002;-82
2021/12/31 19:04:57;;;;;;;36.70;29.20;;;;;;;15.40;45.81;102061.59;144994;696;5002;-95
2021/12/31 19:07:25;;;;;;;39.28;29.65;;;;;;;15.39;45.76;102073.75;144994;566;5002;-96
2021/12/31 19:09:52;;;;;;;34.90;28.52;;;;;;;15.37;46.13;102082.41;144994;630;5002;-91
2021/12/31 19:12:25;;;;;;;34.90;28.17;;;;;;;15.37;46.24;102075.44;144994;590;5002;-89
2021/12/31 19:14:58;;;;;;;45.47;35.53;;;;;;;15.38;46.16;102085.09;144994;607;5002;-85
2021/12/31 19:17:24;;;;;;;58.50;44.65;;;;;;;15.29;46.32;102096.94;144994;564;5002;-91
2021/12/31 19:19:52;;;;;;;63.22;49.35;;;;;;;15.30;46.40;102083.03;144994;617;5002;-90
2021/12/31 19:22:18;;;;;;;57.00;45.45;;;;;;;15.29;46.79;102089.09;144994;596;5003;-92
2021/12/31 19:24:47;;;;;;;67.15;52.47;;;;;;;15.27;46.45;102088.16;144994;621;5002;-90
2021/12/31 19:27:34;;;;;;;62.58;48.33;;;;;;;15.20;46.61;102085.34;144994;614;5002;-82
2021/12/31 19:30:04;;;;;;;54.28;42.47;;;;;;;15.14;47.09;102081.66;144994;600;5003;-88
2021/12/31 19:32:35;;;;;;;57.58;45.45;;;;;;;15.15;46.68;102086.94;144994;607;5002;-90
2021/12/31 19:35:02;;;;;;;55.88;41.50;;;;;;;15.16;46.87;102090.44;144994;606;5002;-91
2021/12/31 19:37:40;;;;;;;51.90;41.42;;;;;;;15.17;47.29;102085.25;144994;566;5002;-92
2021/12/31 19:40:11;;;;;;;53.42;41.37;;;;;;;15.20;46.72;102087.97;144994;762;5002;-91
2021/12/31 19:42:38;;;;;;;52.55;41.28;;;;;;;15.21;47.41;102079.28;144994;563;5002;-88
2021/12/31 19:45:10;;;;;;;55.50;41.85;;;;;;;15.23;46.85;102089.81;144994;592;5002;-91
2021/12/31 19:47:37;;;;;;;59.92;44.47;;;;;;;15.26;47.32;102095.16;144994;622;5002;-87
2021/12/31 19:50:04;;;;;;;60.50;45.22;;;;;;;15.26;47.55;102089.03;144994;570;5002;-91
2021/12/31 19:52:34;;;;;;;55.80;44.67;;;;;;;15.23;47.57;102088.06;144994;629;5002;-93
2021/12/31 19:55:01;;;;;;;61.47;48.13;;;;;;;15.24;47.40;102078.53;144994;633;5002;-89
2021/12/31 19:57:29;;;;;;;81.85;61.65;;;;;;;15.24;47.96;102079.41;144994;573;5002;-89
2021/12/31 19:59:57;;;;;;;82.88;61.90;;;;;;;15.22;48.02;102074.94;144994;614;5002;-91
2021/12/31 20:02:30;;;;;;;89.43;65.10;;;;;;;15.23;48.09;102080.22;144994;623;5002;-91
2021/12/31 20:04:58;;;;;;;93.87;67.72;;;;;;;15.20;48.21;102074.91;144994;597;5002;-93
2021/12/31 20:07:26;;;;;;;106.28;78.40;;;;;;;15.22;47.92;102065.38;144994;591;5002;-88
2021/12/31 20:09:53;;;;;;;112.43;80.97;;;;;;;15.21;47.93;102073.19;144994;574;5002;-91
2021/12/31 20:12:21;;;;;;;101.20;76.82;;;;;;;15.21;48.34;102084.53;144993;614;5002;-92
2021/12/31 20:14:58;;;;;;;108.10;81.32;;;;;;;15.20;48.20;102082.75;144994;611;5002;-92
2021/12/31 20:17:28;;;;;;;106.55;79.90;;;;;;;15.19;48.24;102083.59;144994;563;5002;-90
2021/12/31 20:20:46;;;;;;;;;;;;;;;;;;;;;
2021/12/31 20:24:03;;;;;;;110.30;82.55;;;;;;;15.17;48.12;102092.22;144994;571;5002;-91
2021/12/31 20:26:42;;;;;;;96.25;70.40;;;;;;;15.10;48.11;102098.97;144994;586;5002;-90
2021/12/31 20:29:08;;;;;;;74.37;54.40;;;;;;;15.10;48.46;102087.66;144994;576;5003;-92
2021/12/31 20:31:42;;;;;;;67.20;50.45;;;;;;;15.09;48.46;102089.34;144994;618;5002;-91
2021/12/31 20:34:11;;;;;;;56.60;42.13;;;;;;;15.07;48.54;102087.53;144994;592;5002;-90
2021/12/31 20:36:38;;;;;;;49.17;38.25;;;;;;;15.06;48.72;102084.00;144994;566;5002;-93
2021/12/31 20:39:04;;;;;;;48.42;35.42;;;;;;;15.03;48.06;102076.06;144994;590;5002;-89
2021/12/31 20:41:31;;;;;;;50.50;38.60;;;;;;;15.01;48.09;102082.97;144994;592;5002;-90
2021/12/31 20:44:00;;;;;;;71.22;51.37;;;;;;;14.94;48.54;102078.41;144994;564;5002;-94
2021/12/31 20:46:28;;;;;;;84.10;61.35;;;;;;;14.90;48.61;102084.34;144994;631;5002;-90
2021/12/31 20:48:55;;;;;;;101.55;73.03;;;;;;;14.86;48.68;102089.47;144994;565;5002;-89
2021/12/31 20:51:21;;;;;;;120.62;87.50;;;;;;;14.83;48.46;102091.09;144994;639;5002;-87
2021/12/31 20:53:48;;;;;;;117.95;88.10;;;;;;;14.84;48.30;102088.53;144994;591;5002;-89
2021/12/31 20:56:16;;;;;;;117.62;85.55;;;;;;;14.82;48.40;102089.31;144994;569;5002;-91
2021/12/31 20:58:42;;;;;;;110.75;81.35;;;;;;;14.79;48.96;102094.44;144994;565;5002;-88
2021/12/31 21:01:12;;;;;;;95.03;70.32;;;;;;;14.71;48.80;102091.56;144994;630;5002;-86
2021/12/31 21:03:39;;;;;;;97.78;71.05;;;;;;;14.71;48.68;102088.06;144994;608;5002;-87
2021/12/31 21:06:06;;;;;;;87.85;66.18;;;;;;;14.69;48.98;102095.84;144994;582;5002;-85
2021/12/31 21:08:32;;;;;;;88.35;66.00;;;;;;;14.66;49.50;102087.91;144994;685;5002;-87
2021/12/31 21:10:59;;;;;;;94.05;66.43;;;;;;;14.63;49.35;102087.78;144994;582;5002;-86
2021/12/31 21:13:26;;;;;;;85.30;63.33;;;;;;;14.60;49.58;102093.81;144994;763;5002;-87
2021/12/31 21:16:25;;;;;;;;;;;;;;;;;;;;;
2021/12/31 21:19:02;;;;;;;83.85;60.55;;;;;;;14.62;49.86;102096.44;144994;571;5004;-88
2021/12/31 21:21:28;;;;;;;79.57;59.10;;;;;;;14.65;49.76;102093.94;144994;636;5005;-89
2021/12/31 21:23:55;;;;;;;74.95;56.17;;;;;;;14.62;49.54;102093.84;144994;759;5004;-91
2021/12/31 21:26:22;;;;;;;69.05;52.80;;;;;;;14.63;49.90;102093.03;144994;635;5004;-87
2021/12/31 21:28:49;;;;;;;60.78;46.42;;;;;;;14.61;49.84;102089.47;144994;840;5005;-80
2021/12/31 21:31:15;;;;;;;45.90;37.33;;;;;;;14.61;49.77;102099.94;144994;567;5004;-89
2021/12/31 21:33:44;;;;;;;41.97;33.80;;;;;;;14.60;50.26;102099.03;144994;575;5004;-90
2021/12/31 21:36:11;;;;;;;41.58;32.08;;;;;;;14.58;50.24;102098.03;144994;568;5005;-88
2021/12/31 21:38:58;;;;;;;40.15;29.45;;;;;;;14.58;50.16;102089.31;144994;604;5004;-83
2021/12/31 21:41:30;;;;;;;34.22;27.20;;;;;;;14.56;50.06;102085.78;144994;646;5004;-88
2021/12/31 21:44:18;;;;;;;37.45;29.83;;;;;;;14.57;50.37;102090.16;144994;696;5004;-84
2021/12/31 21:47:12;;;;;;;42.08;32.17;;;;;;;14.56;50.05;102089.28;144994;603;5002;-84
2021/12/31 21:49:42;;;;;;;47.58;36.67;;;;;;;14.56;50.35;102085.78;144994;574;5004;-90
2021/12/31 21:52:10;;;;;;;56.97;43.75;;;;;;;14.57;49.92;102087.53;144994;591;5004;-84
2021/12/31 21:54:37;;;;;;;58.97;44.67;;;;;;;14.57;50.47;102084.94;144994;608;5004;-89
2021/12/31 21:57:04;;;;;;;52.55;42.22;;;;;;;14.56;50.03;102083.16;144994;567;5004;-88
2021/12/31 21:59:40;;;;;;;58.75;40.72;;;;;;;14.50;50.52;102087.31;144994;618;5004;-89
2021/12/31 22:02:08;;;;;;;56.88;42.83;;;;;;;14.55;50.57;102086.59;144994;584;5004;-90
2021/12/31 22:04:34;;;;;;;54.75;41.88;;;;;;;14.52;50.42;102080.44;144994;641;5004;-92
2021/12/31 22:07:02;;;;;;;50.40;40.08;;;;;;;14.55;50.40;102089.22;144994;572;5004;-91
2021/12/31 22:09:30;;;;;;;48.03;36.72;;;;;;;14.53;50.28;102086.56;144994;639;5004;-90
2021/12/31 22:12:01;;;;;;;48.60;37.03;;;;;;;14.52;50.42;102083.06;144994;685;5004;-89
2021/12/31 22:14:38;;;;;;;60.30;46.35;;;;;;;14.52;50.17;102090.91;144994;643;5004;-90
2021/12/31 22:17:17;;;;;;;52.78;38.83;;;;;;;14.50;49.88;102083.81;144994;613;5004;-80
2021/12/31 22:19:49;;;;;;;43.22;35.72;;;;;;;14.51;49.95;102085.62;144994;595;5004;-81
2021/12/31 22:22:24;;;;;;;47.28;36.22;;;;;;;14.51;50.23;102080.38;144994;564;5004;-91
2021/12/31 22:24:55;;;;;;;52.67;37.28;;;;;;;14.50;49.98;102069.03;144994;583;5004;-80
2021/12/31 22:27:45;;;;;;;;;;;;;;;;;;;;;
2021/12/31 22:30:13;;;;;;;49.53;36.65;;;;;;;14.49;49.89;102072.50;144994;626;5002;-89
2021/12/31 22:32:40;;;;;;;50.35;36.03;;;;;;;14.46;49.64;102063.63;144994;763;5002;-89
2021/12/31 22:35:09;;;;;;;48.10;36.08;;;;;;;14.43;50.16;102072.28;144994;594;5002;-92
2021/12/31 22:37:39;;;;;;;48.45;35.63;;;;;;;14.41;49.98;102059.97;144994;698;5002;-91
2021/12/31 22:40:07;;;;;;;46.65;34.47;;;;;;;14.40;50.08;102058.22;144994;648;5002;-87
2021/12/31 22:42:34;;;;;;;41.28;30.20;;;;;;;14.37;49.78;102053.78;144994;681;5002;-89
2021/12/31 22:45:03;;;;;;;38.55;26.73;;;;;;;14.34;50.14;102051.03;144994;716;5002;-90
2021/12/31 22:47:30;;;;;;;40.90;28.67;;;;;;;14.26;50.44;102050.75;144993;686;5002;-91
2021/12/31 22:49:57;;;;;;;39.72;27.37;;;;;;;14.21;50.43;102051.44;144994;760;5002;-89
2021/12/31 22:52:23;;;;;;;37.30;26.62;;;;;;;14.19;50.32;102053.09;144994;604;5002;-90
2021/12/31 22:54:50;;;;;;;41.15;28.40;;;;;;;14.17;50.73;102049.56;144994;764;5002;-89
2021/12/31 22:57:16;;;;;;;38.97;27.62;;;;;;;14.13;50.42;102049.44;144994;586;5002;-86
2021/12/31 22:59:43;;;;;;;40.03;27.55;;;;;;;14.09;50.43;102051.88;144994;644;4566;-87
2021/12/31 23:02:10;;;;;;;40.97;27.80;;;;;;;14.04;50.60;102051.69;144994;589;4567;-90
2021/12/31 23:05:08;;;;;;;38.67;27.48;;;;;;;14.01;51.23;102048.97;144994;570;4572;-80
2021/12/31 23:07:35;;;;;;;52.47;34.00;;;;;;;14.02;51.19;102047.28;144992;610;6002;-91
2021/12/31 23:10:01;;;;;;;58.67;41.40;;;;;;;14.02;51.06;102045.53;144992;580;6002;-89
2021/12/31 23:12:29;;;;;;;62.58;44.97;;;;;;;14.05;50.97;102042.19;144992;807;6002;-92
2021/12/31 23:14:56;;;;;;;67.35;48.45;;;;;;;14.06;51.19;102039.63;144992;803;6002;-91
2021/12/31 23:17:22;;;;;;;66.82;48.00;;;;;;;14.08;51.09;102034.44;144992;632;6002;-94
2021/12/31 23:19:52;;;;;;;65.72;47.35;;;;;;;14.09;51.53;102023.16;144992;573;6002;-91
2021/12/31 23:22:19;;;;;;;58.80;44.97;;;;;;;14.05;51.40;102024.78;144992;608;6002;-86
2021/12/31 23:24:54;;;;;;;57.17;42.55;;;;;;;14.04;51.14;102025.59;144992;605;6002;-90
2021/12/31 23:27:48;;;;;;;51.95;39.28;;;;;;;14.04;51.17;102017.75;144992;623;6002;-81
2021/12/31 23:30:24;;;;;;;49.92;37.42;;;;;;;14.06;51.52;102012.59;144992;622;6002;-90
2021/12/31 23:32:51;;;;;;;49.03;34.90;;;;;;;14.06;51.63;102016.13;144992;653;6002;-89
2021/12/31 23:35:19;;;;;;;44.60;33.83;;;;;;;14.07;51.18;102015.25;144992;626;6003;-91
2021/12/31 23:37:46;;;;;;;40.22;30.73;;;;;;;14.07;51.60;102017.88;144992;565;6002;-85
2021/12/31 23:40:15;;;;;;;38.38;29.30;;;;;;;14.04;51.49;102011.66;144992;620;6002;-88
2021/12/31 23:42:43;;;;;;;37.55;28.85;;;;;;;14.00;51.42;102015.91;144992;618;6003;-90
2021/12/31 23:45:20;;;;;;;38.92;28.27;;;;;;;13.93;51.58;102011.28;144992;622;6002;-90